Strona główna
METAR-TAF:

METAR-TAF

Lotnisko :

Baza lotnicza Cameri

Novara, Włochy

Szerokość geograficzna: 45-31N, Długość geograficzna: 008-40E, wysokość: 178 m

Aktualna obserwacja pogody

Raport powstał 11 godziny i 10 minut temu, godzina 17:55 UTC
Wiatr 4 kt od wschodnio-południowy wschód
Temperatura 19°C
Wilgotność 34%
Ciśnienie 1023 hPa
Widzialność 10 km lub więcej
Brak chmur poniżej 1500 m i brak chmur cumulonimbus

METAR: LIMN 081755Z 11004KT CAVOK 19/03 Q1023 RMK SKC VIS MIN 9999 BLU

czas: 07:05 (05:05 UTC)

Prognoza

Raport powstał 12 godziny i 5 minut temu, godzina 17:00 UTC
Prognoza ważna od 08 godzina 18 UTC do 09 godzina 03 UTC
Wiatr 5 kt z kierunków zmiennych
Widzialność 10 km lub więcej
Brak chmur poniżej 1500 m i brak chmur cumulonimbus

TAF: LIMN 081700Z 0818/0903 VRB05KT CAVOK

Obserwacja i prognoza pogody dla ponad 4000 lotnisk (raport METAR i TAF).

Dostępne stacje oznaczono żółtymi i czerwonymi punktami na mapie.

Najedź kursorem aby zobaczyć nazwę stacji.

Kliknij aby zobaczyć obserwacje i prognozy pogody.

Aby zmienić mapę: kliknij na zielony przycisk z czarnym krzyżykiem, aby powiększyć; na zielony przycisk z myślnikiem, aby pomniejszyć; na zielone strzałki, aby przejść do map sąsiednich.


METAR-TAF: